METAR Data
IDs: Format: Raw Decoded Include TAF

Data at: 1638 UTC 03 Jul 2020

METAR for:KVTA (Newark/Heath Arpt, OH, US)
Text:KVTA 031554Z AUTO 00000KT 10SM CLR 31/16 A3003 RMK AO2 SLP160 T03060156
Temperature: 30.6°C ( 87°F)
Dewpoint: 15.6°C ( 60°F) [RH = 40%]
Pressure (altimeter):30.03 inches Hg (1017.0 mb) [Sea level pressure: 1016.0 mb]
Winds:calm
Visibility:10 or more sm (16+ km)
Ceiling:at least 12,000 feet AGL
Clouds:sky clear below 12,000 feet AGL
QC Flag:automated observation with no human augmentation